Time;durP1;ratioP1;P1;durP2;ratioP2;P2;SDS_P1;SDS_P2;PMS_P1;PMS_P2;Temp;Humidity;BMP_temperature;BMP_pressure;BME280_temperature;BME280_humidity;BME280_pressure;Samples;Min_cycle;Max_cycle;Signal;HPM_P1;HPM_P2
2023/07/18 00:00:01;;;;;;;18.87;8.27;;;;;;;;;;776107;179;919604;-61
2023/07/18 00:02:27;;;;;;;26.33;9.03;;;;;;;;;;779401;181;919105;-58
2023/07/18 00:04:54;;;;;;;21.10;10.20;;;;;;;;;;774624;180;918966;-61
2023/07/18 00:07:20;;;;;;;12.40;8.80;;;;;;;;;;768132;181;919415;-62
2023/07/18 00:09:45;;;;;;;34.13;9.30;;;;;;;;;;780130;178;918669;-62
2023/07/18 00:12:10;;;;;;;15.67;8.60;;;;;;;;;;767548;181;918824;-61
2023/07/18 00:14:36;;;;;;;17.63;9.03;;;;;;;;;;764640;180;920504;-61
2023/07/18 00:17:02;;;;;;;25.93;9.83;;;;;;;;;;776369;178;920967;-61
2023/07/18 00:19:29;;;;;;;18.53;9.47;;;;;;;;;;785039;179;820280;-61
2023/07/18 00:21:55;;;;;;;23.27;10.13;;;;;;;;;;780398;179;817157;-62
2023/07/18 00:24:20;;;;;;;11.80;7.47;;;;;;;;;;771160;179;918325;-58
2023/07/18 00:26:46;;;;;;;23.47;9.40;;;;;;;;;;780040;180;919797;-58
2023/07/18 00:29:11;;;;;;;28.45;9.63;;;;;;;;;;775481;180;917105;-58
2023/07/18 00:31:37;;;;;;;19.13;9.50;;;;;;;;;;770623;179;913486;-57
2023/07/18 00:34:04;;;;;;;12.03;8.30;;;;;;;;;;774401;180;921233;-61
2023/07/18 00:36:29;;;;;;;25.03;11.67;;;;;;;;;;774930;179;918404;-59
2023/07/18 00:38:55;;;;;;;34.03;11.20;;;;;;;;;;775155;180;919008;-62
2023/07/18 00:41:21;;;;;;;33.07;11.83;;;;;;;;;;774482;180;916938;-57
2023/07/18 00:43:47;;;;;;;23.97;12.77;;;;;;;;;;772522;180;937465;-57
2023/07/18 00:46:12;;;;;;;23.77;12.10;;;;;;;;;;774723;180;920715;-57
2023/07/18 00:48:38;;;;;;;23.23;11.67;;;;;;;;;;771741;181;919448;-61
2023/07/18 00:51:04;;;;;;;17.45;12.23;;;;;;;;;;777332;180;917925;-57
2023/07/18 00:53:30;;;;;;;18.83;11.43;;;;;;;;;;767784;180;900960;-58
2023/07/18 00:55:56;;;;;;;30.73;12.17;;;;;;;;;;772826;180;923013;-58
2023/07/18 00:58:22;;;;;;;26.67;11.33;;;;;;;;;;778424;180;919452;-58
2023/07/18 01:00:47;;;;;;;26.10;11.77;;;;;;;;;;776384;179;854546;-57
2023/07/18 01:03:15;;;;;;;23.67;12.13;;;;;;;;;;769532;181;919044;-58
2023/07/18 01:05:39;;;;;;;17.17;11.63;;;;;;;;;;773739;178;918994;-61
2023/07/18 01:08:05;;;;;;;50.57;13.40;;;;;;;;;;772105;181;922198;-62
2023/07/18 01:10:31;;;;;;;31.07;11.57;;;;;;;;;;773389;181;921711;-59
2023/07/18 01:12:57;;;;;;;34.13;12.53;;;;;;;;;;774636;178;921710;-62
2023/07/18 01:15:23;;;;;;;24.10;11.07;;;;;;;;;;777751;180;917265;-63
2023/07/18 01:17:48;;;;;;;24.93;11.90;;;;;;;;;;775067;180;919768;-58
2023/07/18 01:20:16;;;;;;;23.93;12.83;;;;;;;;;;772611;179;917593;-58
2023/07/18 01:22:41;;;;;;;27.50;12.10;;;;;;;;;;783547;179;714326;-58
2023/07/18 01:25:07;;;;;;;27.23;12.70;;;;;;;;;;776977;179;856739;-58
2023/07/18 01:27:36;;;;;;;40.33;11.97;;;;;;;;;;772210;177;917475;-63
2023/07/18 01:29:58;;;;;;;18.13;11.90;;;;;;;;;;779199;178;919373;-62
2023/07/18 01:32:24;;;;;;;24.17;12.40;;;;;;;;;;771147;179;917951;-63
2023/07/18 01:34:50;;;;;;;17.50;11.30;;;;;;;;;;772896;180;918576;-58
2023/07/18 01:37:16;;;;;;;18.17;10.83;;;;;;;;;;775129;179;862646;-64
2023/07/18 01:39:43;;;;;;;21.87;13.67;;;;;;;;;;773690;180;917305;-64
2023/07/18 01:42:08;;;;;;;53.87;14.97;;;;;;;;;;774471;179;918966;-58
2023/07/18 01:44:34;;;;;;;39.73;12.20;;;;;;;;;;773147;179;936044;-63
2023/07/18 01:47:00;;;;;;;27.30;11.90;;;;;;;;;;780168;180;918974;-59
2023/07/18 01:49:25;;;;;;;43.17;13.80;;;;;;;;;;775456;179;918278;-63
2023/07/18 01:51:51;;;;;;;35.17;12.10;;;;;;;;;;773232;180;919256;-59
2023/07/18 01:54:17;;;;;;;37.30;12.07;;;;;;;;;;773606;180;920288;-59
2023/07/18 01:56:43;;;;;;;20.30;11.70;;;;;;;;;;775895;180;919581;-64
2023/07/18 01:59:09;;;;;;;29.73;12.33;;;;;;;;;;771076;180;918854;-58
2023/07/18 02:01:35;;;;;;;27.17;12.93;;;;;;;;;;774174;180;918935;-59
2023/07/18 02:04:01;;;;;;;34.73;11.97;;;;;;;;;;767444;181;819545;-64
2023/07/18 02:06:27;;;;;;;32.00;12.97;;;;;;;;;;775803;179;823542;-64
2023/07/18 02:08:53;;;;;;;33.83;14.37;;;;;;;;;;769185;181;820223;-64
2023/07/18 02:11:18;;;;;;;40.83;15.43;;;;;;;;;;779701;180;917425;-59
2023/07/18 02:13:44;;;;;;;39.87;12.63;;;;;;;;;;773099;181;918867;-64
2023/07/18 02:16:10;;;;;;;40.43;11.63;;;;;;;;;;772388;181;919409;-59
2023/07/18 02:18:36;;;;;;;35.87;14.57;;;;;;;;;;779689;180;814668;-59
2023/07/18 02:21:02;;;;;;;29.00;13.20;;;;;;;;;;773661;180;919305;-64
2023/07/18 02:23:28;;;;;;;23.57;14.17;;;;;;;;;;767412;181;917663;-59
2023/07/18 02:25:53;;;;;;;20.53;13.07;;;;;;;;;;772370;179;1294440;-65
2023/07/18 02:28:20;;;;;;;32.40;12.83;;;;;;;;;;771817;179;911519;-59
2023/07/18 02:30:45;;;;;;;28.13;12.80;;;;;;;;;;772689;178;904717;-59
2023/07/18 02:33:11;;;;;;;27.63;13.17;;;;;;;;;;774291;179;916422;-65
2023/07/18 02:35:37;;;;;;;20.70;11.80;;;;;;;;;;774397;179;916185;-64
2023/07/18 02:38:03;;;;;;;28.53;13.60;;;;;;;;;;772572;181;927995;-59
2023/07/18 02:40:29;;;;;;;27.57;11.17;;;;;;;;;;768436;180;917041;-60
2023/07/18 02:42:54;;;;;;;25.07;10.73;;;;;;;;;;780241;179;920383;-65
2023/07/18 02:45:20;;;;;;;21.77;10.30;;;;;;;;;;775819;179;917775;-65
2023/07/18 02:47:46;;;;;;;21.97;11.60;;;;;;;;;;776196;179;817476;-64
2023/07/18 02:50:12;;;;;;;30.00;12.40;;;;;;;;;;774272;180;920105;-65
2023/07/18 02:52:38;;;;;;;25.97;12.90;;;;;;;;;;771787;179;919303;-61
2023/07/18 02:55:04;;;;;;;26.47;13.50;;;;;;;;;;769813;180;916223;-60
2023/07/18 02:57:31;;;;;;;18.67;11.70;;;;;;;;;;775521;180;919253;-61
2023/07/18 02:59:57;;;;;;;42.60;12.63;;;;;;;;;;773124;180;918426;-61
2023/07/18 03:02:22;;;;;;;17.90;10.93;;;;;;;;;;776168;178;884194;-64
2023/07/18 03:04:48;;;;;;;26.63;10.57;;;;;;;;;;772871;180;814631;-65
2023/07/18 03:07:13;;;;;;;37.37;11.20;;;;;;;;;;777367;179;904182;-64
2023/07/18 03:09:39;;;;;;;19.13;11.37;;;;;;;;;;767043;180;916463;-60
2023/07/18 03:12:07;;;;;;;17.17;10.67;;;;;;;;;;774061;180;917964;-60
2023/07/18 03:14:31;;;;;;;28.07;11.13;;;;;;;;;;777033;178;924826;-64
2023/07/18 03:16:57;;;;;;;14.80;9.40;;;;;;;;;;772426;179;859982;-60
2023/07/18 03:19:23;;;;;;;17.80;9.82;;;;;;;;;;773198;180;918549;-64
2023/07/18 03:21:49;;;;;;;24.00;11.67;;;;;;;;;;775509;180;920773;-64
2023/07/18 03:24:15;;;;;;;31.47;11.63;;;;;;;;;;770849;179;820184;-64
2023/07/18 03:26:40;;;;;;;27.07;9.67;;;;;;;;;;770281;179;918008;-60
2023/07/18 03:29:06;;;;;;;24.53;9.30;;;;;;;;;;769261;180;919042;-64
2023/07/18 03:31:32;;;;;;;23.77;9.83;;;;;;;;;;780835;180;918163;-60
2023/07/18 03:33:58;;;;;;;16.90;9.03;;;;;;;;;;776847;179;823494;-59
2023/07/18 03:36:24;;;;;;;20.90;9.63;;;;;;;;;;774578;179;916092;-60
2023/07/18 03:38:50;;;;;;;23.67;8.70;;;;;;;;;;776226;181;916545;-65
2023/07/18 03:41:15;;;;;;;30.73;9.02;;;;;;;;;;771471;180;919785;-64
2023/07/18 03:43:41;;;;;;;15.63;8.00;;;;;;;;;;773267;179;919875;-62
2023/07/18 03:46:07;;;;;;;12.40;7.60;;;;;;;;;;776238;180;918933;-61
2023/07/18 03:48:34;;;;;;;16.83;7.70;;;;;;;;;;771824;180;918167;-66
2023/07/18 03:50:59;;;;;;;15.43;7.97;;;;;;;;;;771804;178;922026;-67
2023/07/18 03:53:25;;;;;;;15.30;8.30;;;;;;;;;;767598;179;921223;-66
2023/07/18 03:55:51;;;;;;;17.73;8.60;;;;;;;;;;779461;180;921489;-66
2023/07/18 03:58:16;;;;;;;15.40;9.80;;;;;;;;;;776867;179;921282;-66
2023/07/18 04:00:42;;;;;;;19.00;8.07;;;;;;;;;;772541;178;918511;-66
2023/07/18 04:03:08;;;;;;;15.57;8.57;;;;;;;;;;781017;180;885560;-67
2023/07/18 04:05:34;;;;;;;19.40;9.07;;;;;;;;;;772535;180;920209;-67
2023/07/18 04:08:00;;;;;;;14.98;9.15;;;;;;;;;;773492;179;860949;-62
2023/07/18 04:10:26;;;;;;;15.90;7.63;;;;;;;;;;780713;179;745855;-66
2023/07/18 04:12:51;;;;;;;20.53;9.10;;;;;;;;;;775155;179;919136;-62
2023/07/18 04:15:17;;;;;;;18.03;8.90;;;;;;;;;;775794;180;818003;-62
2023/07/18 04:17:44;;;;;;;18.70;8.40;;;;;;;;;;779981;180;932911;-62
2023/07/18 04:20:10;;;;;;;14.00;8.10;;;;;;;;;;774700;180;622762;-62
2023/07/18 04:22:35;;;;;;;17.43;8.37;;;;;;;;;;776554;180;630508;-62
2023/07/18 04:25:01;;;;;;;10.93;7.40;;;;;;;;;;769474;180;881838;-67
2023/07/18 04:27:27;;;;;;;13.07;7.13;;;;;;;;;;778751;180;915556;-62
2023/07/18 04:29:53;;;;;;;11.63;6.47;;;;;;;;;;767935;181;816631;-63
2023/07/18 04:32:19;;;;;;;12.50;7.60;;;;;;;;;;777276;180;822823;-67
2023/07/18 04:34:45;;;;;;;14.20;7.77;;;;;;;;;;779947;179;918496;-67
2023/07/18 04:37:11;;;;;;;16.13;6.90;;;;;;;;;;770047;179;916913;-65
2023/07/18 04:39:37;;;;;;;10.33;7.10;;;;;;;;;;765619;181;919391;-67
2023/07/18 04:42:02;;;;;;;12.90;8.00;;;;;;;;;;774780;180;814711;-66
2023/07/18 04:44:28;;;;;;;15.50;7.00;;;;;;;;;;769034;180;971313;-66
2023/07/18 04:46:54;;;;;;;22.37;6.65;;;;;;;;;;773056;180;918439;-65
2023/07/18 04:49:22;;;;;;;10.30;6.90;;;;;;;;;;774268;179;920671;-66
2023/07/18 04:51:46;;;;;;;14.00;6.60;;;;;;;;;;782670;179;817592;-67
2023/07/18 04:54:12;;;;;;;13.90;6.10;;;;;;;;;;775728;179;887234;-62
2023/07/18 04:56:38;;;;;;;13.63;6.73;;;;;;;;;;773686;179;919739;-66
2023/07/18 04:59:03;;;;;;;13.20;6.50;;;;;;;;;;777778;178;821366;-62
2023/07/18 05:01:29;;;;;;;13.83;6.50;;;;;;;;;;769093;179;935458;-62
2023/07/18 05:03:55;;;;;;;10.90;6.30;;;;;;;;;;776156;178;917228;-63
2023/07/18 05:06:21;;;;;;;17.13;6.80;;;;;;;;;;782017;178;907108;-61
2023/07/18 05:08:47;;;;;;;8.70;5.07;;;;;;;;;;773895;179;919192;-61
2023/07/18 05:11:13;;;;;;;13.37;4.97;;;;;;;;;;777928;179;823773;-61
2023/07/18 05:13:39;;;;;;;16.20;6.20;;;;;;;;;;780395;179;813701;-62
2023/07/18 05:16:05;;;;;;;15.37;5.70;;;;;;;;;;775099;180;815908;-61
2023/07/18 05:18:30;;;;;;;16.80;6.50;;;;;;;;;;777677;179;919418;-62
2023/07/18 05:20:56;;;;;;;10.67;5.67;;;;;;;;;;775157;179;921981;-66
2023/07/18 05:23:22;;;;;;;20.23;6.47;;;;;;;;;;775177;178;917382;-62
2023/07/18 05:25:48;;;;;;;13.37;4.77;;;;;;;;;;775707;180;919781;-66
2023/07/18 05:28:14;;;;;;;10.80;6.30;;;;;;;;;;776012;180;921036;-65
2023/07/18 05:30:39;;;;;;;9.23;4.90;;;;;;;;;;778448;179;889441;-65
2023/07/18 05:33:06;;;;;;;9.80;5.03;;;;;;;;;;776181;179;917055;-65
2023/07/18 05:35:31;;;;;;;11.20;5.37;;;;;;;;;;770094;180;918915;-61
2023/07/18 05:37:57;;;;;;;14.07;4.87;;;;;;;;;;773110;181;920706;-66
2023/07/18 05:40:23;;;;;;;18.53;5.30;;;;;;;;;;772227;180;922659;-66
2023/07/18 05:42:49;;;;;;;7.67;4.50;;;;;;;;;;769139;180;918759;-60
2023/07/18 05:45:14;;;;;;;14.73;4.20;;;;;;;;;;772839;180;925547;-60
2023/07/18 05:47:40;;;;;;;11.67;5.17;;;;;;;;;;780062;181;818607;-65
2023/07/18 05:50:07;;;;;;;10.40;5.03;;;;;;;;;;775310;180;821049;-67
2023/07/18 05:52:32;;;;;;;12.60;4.70;;;;;;;;;;774144;180;919712;-64
2023/07/18 05:54:58;;;;;;;10.97;3.90;;;;;;;;;;774978;178;919640;-60
2023/07/18 05:57:24;;;;;;;10.63;5.00;;;;;;;;;;770826;180;919118;-59
2023/07/18 05:59:50;;;;;;;13.27;4.23;;;;;;;;;;770440;180;919748;-64
2023/07/18 06:02:16;;;;;;;9.67;4.07;;;;;;;;;;779190;180;835040;-63
2023/07/18 06:04:42;;;;;;;8.20;4.60;;;;;;;;;;777067;179;775906;-63
2023/07/18 06:07:07;;;;;;;7.53;4.47;;;;;;;;;;773050;180;925196;-60
2023/07/18 06:09:33;;;;;;;7.73;4.37;;;;;;;;;;770982;180;917902;-60
2023/07/18 06:11:59;;;;;;;11.13;5.03;;;;;;;;;;768795;181;918441;-65
2023/07/18 06:14:26;;;;;;;11.30;4.20;;;;;;;;;;770587;180;919922;-59
2023/07/18 06:16:51;;;;;;;10.03;4.60;;;;;;;;;;774530;179;909168;-65
2023/07/18 06:19:17;;;;;;;7.37;4.87;;;;;;;;;;782247;179;899361;-60
2023/07/18 06:21:43;;;;;;;6.93;4.20;;;;;;;;;;777349;179;915344;-59
2023/07/18 06:24:08;;;;;;;13.03;4.83;;;;;;;;;;775648;179;915612;-64
2023/07/18 06:26:34;;;;;;;6.90;3.30;;;;;;;;;;777520;179;942205;-60
2023/07/18 06:29:00;;;;;;;9.73;4.67;;;;;;;;;;771364;180;921365;-65
2023/07/18 06:31:26;;;;;;;15.93;4.60;;;;;;;;;;771337;180;812997;-59
2023/07/18 06:33:52;;;;;;;6.20;3.70;;;;;;;;;;774853;179;919315;-64
2023/07/18 06:36:18;;;;;;;10.80;3.50;;;;;;;;;;773595;180;913883;-65
2023/07/18 06:38:43;;;;;;;6.87;3.83;;;;;;;;;;773311;179;919059;-65
2023/07/18 06:41:10;;;;;;;6.63;4.67;;;;;;;;;;773800;179;917172;-65
2023/07/18 06:43:35;;;;;;;7.37;3.80;;;;;;;;;;778079;180;918762;-59
2023/07/18 06:46:01;;;;;;;6.80;4.30;;;;;;;;;;774831;180;919641;-59
2023/07/18 06:48:27;;;;;;;5.40;3.70;;;;;;;;;;774647;180;923305;-59
2023/07/18 06:50:53;;;;;;;5.03;3.30;;;;;;;;;;776477;180;918783;-65
2023/07/18 06:53:18;;;;;;;5.17;2.93;;;;;;;;;;770889;180;918506;-65
2023/07/18 06:55:44;;;;;;;8.10;3.53;;;;;;;;;;769105;180;919301;-64
2023/07/18 06:58:10;;;;;;;5.07;3.53;;;;;;;;;;775220;179;918781;-65
2023/07/18 07:00:36;;;;;;;6.90;3.47;;;;;;;;;;770978;179;922814;-66
2023/07/18 07:03:02;;;;;;;13.47;3.97;;;;;;;;;;772410;179;889636;-65
2023/07/18 07:05:28;;;;;;;9.47;3.00;;;;;;;;;;770396;180;918511;-60
2023/07/18 07:07:53;;;;;;;5.83;3.30;;;;;;;;;;776107;180;811522;-65
2023/07/18 07:10:19;;;;;;;7.27;4.00;;;;;;;;;;772497;179;919012;-59
2023/07/18 07:12:45;;;;;;;7.30;3.17;;;;;;;;;;774964;180;918435;-65
2023/07/18 07:15:12;;;;;;;4.90;3.20;;;;;;;;;;777638;180;919399;-60
2023/07/18 07:17:38;;;;;;;4.50;3.00;;;;;;;;;;771680;180;915557;-65
2023/07/18 07:20:04;;;;;;;6.87;3.30;;;;;;;;;;772460;180;920624;-60
2023/07/18 07:22:30;;;;;;;8.93;3.40;;;;;;;;;;774944;180;916488;-59
2023/07/18 07:24:56;;;;;;;8.53;2.73;;;;;;;;;;770727;180;919599;-59
2023/07/18 07:27:22;;;;;;;6.17;3.93;;;;;;;;;;777320;178;919878;-60
2023/07/18 07:29:47;;;;;;;5.73;2.97;;;;;;;;;;773792;179;919571;-64
2023/07/18 07:32:13;;;;;;;6.60;3.23;;;;;;;;;;775282;180;919437;-66
2023/07/18 07:34:39;;;;;;;8.77;3.97;;;;;;;;;;772435;179;919778;-65
2023/07/18 07:37:05;;;;;;;5.03;3.10;;;;;;;;;;766363;180;918572;-60
2023/07/18 07:39:31;;;;;;;6.20;2.90;;;;;;;;;;781460;179;921359;-58
2023/07/18 07:41:57;;;;;;;13.17;3.27;;;;;;;;;;777416;179;920094;-63
2023/07/18 07:44:22;;;;;;;9.00;3.40;;;;;;;;;;772626;180;919538;-65
2023/07/18 07:46:48;;;;;;;8.50;3.37;;;;;;;;;;778787;180;918913;-65
2023/07/18 07:49:14;;;;;;;4.47;2.73;;;;;;;;;;771232;180;816656;-59
2023/07/18 07:51:40;;;;;;;11.60;3.67;;;;;;;;;;772280;180;919368;-59
2023/07/18 07:54:06;;;;;;;8.83;3.53;;;;;;;;;;775642;180;913350;-59
2023/07/18 07:56:32;;;;;;;6.03;3.10;;;;;;;;;;776449;180;918287;-66
2023/07/18 07:58:57;;;;;;;5.93;3.20;;;;;;;;;;771810;180;914191;-59
2023/07/18 08:01:23;;;;;;;8.07;3.80;;;;;;;;;;768552;179;935311;-64
2023/07/18 08:03:49;;;;;;;5.93;3.37;;;;;;;;;;777326;179;919002;-58
2023/07/18 08:06:15;;;;;;;5.63;3.17;;;;;;;;;;776234;179;920243;-58
2023/07/18 08:08:41;;;;;;;10.17;3.80;;;;;;;;;;771147;180;918398;-65
2023/07/18 08:11:07;;;;;;;5.10;3.17;;;;;;;;;;777763;180;873788;-65
2023/07/18 08:13:32;;;;;;;7.67;3.53;;;;;;;;;;771411;181;935284;-58
2023/07/18 08:15:58;;;;;;;5.70;3.53;;;;;;;;;;773381;180;918635;-64
2023/07/18 08:18:24;;;;;;;5.47;3.10;;;;;;;;;;777848;179;918660;-59
2023/07/18 08:20:50;;;;;;;4.80;3.00;;;;;;;;;;776526;180;818000;-65
2023/07/18 08:23:16;;;;;;;7.53;3.07;;;;;;;;;;769440;180;628572;-65
2023/07/18 08:25:43;;;;;;;5.57;2.90;;;;;;;;;;778505;180;624297;-61
2023/07/18 08:28:07;;;;;;;8.60;3.27;;;;;;;;;;773839;182;633047;-59
2023/07/18 08:30:33;;;;;;;6.80;3.47;;;;;;;;;;773280;180;628431;-59
2023/07/18 08:32:59;;;;;;;6.03;3.63;;;;;;;;;;778586;180;621418;-66
2023/07/18 08:35:25;;;;;;;7.80;3.83;;;;;;;;;;778659;180;677543;-60
2023/07/18 08:37:51;;;;;;;4.00;2.60;;;;;;;;;;777545;178;818391;-65
2023/07/18 08:40:17;;;;;;;6.50;2.93;;;;;;;;;;777875;179;794083;-65
2023/07/18 08:42:43;;;;;;;6.33;3.83;;;;;;;;;;781277;178;918901;-65
2023/07/18 08:45:09;;;;;;;6.50;3.27;;;;;;;;;;774908;179;918679;-65
2023/07/18 08:47:34;;;;;;;4.70;3.47;;;;;;;;;;766869;180;918640;-65
2023/07/18 08:50:00;;;;;;;5.10;3.67;;;;;;;;;;775582;180;921101;-65
2023/07/18 08:52:26;;;;;;;7.87;3.77;;;;;;;;;;774630;180;919299;-58
2023/07/18 08:54:52;;;;;;;8.07;3.00;;;;;;;;;;774699;180;868688;-65
2023/07/18 08:57:18;;;;;;;7.27;3.40;;;;;;;;;;773789;180;886151;-61
2023/07/18 08:59:44;;;;;;;5.93;2.93;;;;;;;;;;780814;180;818683;-59
2023/07/18 09:02:09;;;;;;;5.53;3.30;;;;;;;;;;768225;180;915457;-67
2023/07/18 09:04:35;;;;;;;7.30;3.40;;;;;;;;;;772610;180;920428;-59
2023/07/18 09:07:02;;;;;;;4.57;3.00;;;;;;;;;;779782;180;919245;-60
2023/07/18 09:09:27;;;;;;;9.47;3.33;;;;;;;;;;776147;178;920870;-59
2023/07/18 09:11:57;;;;;;;7.65;3.00;;;;;;;;;;774918;180;918736;-66
2023/07/18 09:14:23;;;;;;;9.15;3.40;;;;;;;;;;777154;180;920936;-65
2023/07/18 09:16:49;;;;;;;4.90;3.20;;;;;;;;;;764425;182;919081;-60
2023/07/18 09:19:15;;;;;;;5.97;3.23;;;;;;;;;;761835;180;919979;-60
2023/07/18 09:21:41;;;;;;;6.70;3.80;;;;;;;;;;771508;181;919604;-60
2023/07/18 09:24:06;;;;;;;5.80;3.00;;;;;;;;;;781336;179;656030;-59
2023/07/18 09:26:32;;;;;;;7.67;3.03;;;;;;;;;;764473;180;918964;-59
2023/07/18 09:28:59;;;;;;;6.27;3.27;;;;;;;;;;769051;181;917859;-60
2023/07/18 09:31:24;;;;;;;5.43;2.80;;;;;;;;;;779476;179;919172;-65
2023/07/18 09:33:50;;;;;;;9.43;4.90;;;;;;;;;;775824;180;919208;-68
2023/07/18 09:36:18;;;;;;;4.87;3.17;;;;;;;;;;775904;179;919816;-60
2023/07/18 09:38:44;;;;;;;4.73;3.07;;;;;;;;;;777648;179;918807;-64
2023/07/18 09:41:10;;;;;;;6.43;2.83;;;;;;;;;;775509;181;924025;-58
2023/07/18 09:43:36;;;;;;;9.50;3.50;;;;;;;;;;777009;179;818375;-63
2023/07/18 09:46:02;;;;;;;5.50;2.80;;;;;;;;;;770408;180;922558;-58
2023/07/18 09:48:27;;;;;;;7.30;2.67;;;;;;;;;;775495;178;919698;-58
2023/07/18 09:50:53;;;;;;;17.50;3.27;;;;;;;;;;772192;179;919690;-59
2023/07/18 09:53:19;;;;;;;5.33;3.50;;;;;;;;;;777560;180;829031;-63
2023/07/18 09:55:45;;;;;;;6.40;3.00;;;;;;;;;;781726;179;918742;-64
2023/07/18 09:58:12;;;;;;;5.10;2.53;;;;;;;;;;771986;180;822320;-65
2023/07/18 10:00:37;;;;;;;4.95;2.95;;;;;;;;;;776467;180;918806;-58
2023/07/18 10:03:02;;;;;;;8.67;3.63;;;;;;;;;;780913;179;918462;-64
2023/07/18 10:05:28;;;;;;;5.75;2.97;;;;;;;;;;770801;180;916080;-59
2023/07/18 10:07:54;;;;;;;5.80;3.10;;;;;;;;;;776708;178;916999;-58
2023/07/18 10:10:20;;;;;;;5.30;3.57;;;;;;;;;;772808;179;915422;-64
2023/07/18 10:12:52;;;;;;;7.27;3.97;;;;;;;;;;768896;180;922913;-66
2023/07/18 10:15:18;;;;;;;3.90;2.60;;;;;;;;;;774218;179;882082;-59
2023/07/18 10:17:43;;;;;;;11.37;3.03;;;;;;;;;;774088;180;911550;-59
2023/07/18 10:20:10;;;;;;;6.53;2.83;;;;;;;;;;778056;180;795471;-59
2023/07/18 10:22:35;;;;;;;6.77;3.63;;;;;;;;;;778236;180;912297;-64
2023/07/18 10:25:05;;;;;;;5.47;3.57;;;;;;;;;;772880;180;922127;-64
2023/07/18 10:27:37;;;;;;;16.73;2.70;;;;;;;;;;765717;181;866789;-65
2023/07/18 10:30:03;;;;;;;6.93;3.67;;;;;;;;;;780591;179;716366;-64
2023/07/18 10:32:30;;;;;;;4.70;3.00;;;;;;;;;;773861;180;918703;-63
2023/07/18 10:34:55;;;;;;;5.93;3.00;;;;;;;;;;772666;180;919009;-63
2023/07/18 10:37:22;;;;;;;6.67;3.13;;;;;;;;;;774654;180;919083;-59
2023/07/18 10:39:49;;;;;;;5.60;3.00;;;;;;;;;;775702;180;918823;-66
2023/07/18 10:42:20;;;;;;;5.57;2.80;;;;;;;;;;774412;179;913919;-64
2023/07/18 10:44:45;;;;;;;7.30;3.83;;;;;;;;;;767773;181;880032;-66
2023/07/18 10:47:11;;;;;;;5.73;3.00;;;;;;;;;;774564;180;920145;-64
2023/07/18 10:49:37;;;;;;;6.30;3.60;;;;;;;;;;772629;181;920100;-64
2023/07/18 10:52:03;;;;;;;5.47;2.63;;;;;;;;;;773655;180;918528;-59
2023/07/18 10:54:29;;;;;;;8.70;3.87;;;;;;;;;;772919;181;919540;-58
2023/07/18 10:56:55;;;;;;;4.93;2.93;;;;;;;;;;770835;181;918261;-59
2023/07/18 10:59:22;;;;;;;5.37;2.93;;;;;;;;;;770842;180;921312;-58
2023/07/18 11:01:47;;;;;;;6.33;3.60;;;;;;;;;;772124;180;917684;-64
2023/07/18 11:04:13;;;;;;;6.57;3.20;;;;;;;;;;775934;180;883118;-59
2023/07/18 11:06:39;;;;;;;5.33;2.93;;;;;;;;;;773648;179;919482;-60
2023/07/18 11:09:04;;;;;;;8.03;2.63;;;;;;;;;;769123;180;918857;-65
2023/07/18 11:11:30;;;;;;;5.97;3.63;;;;;;;;;;774545;178;814493;-66
2023/07/18 11:13:56;;;;;;;5.17;3.43;;;;;;;;;;776404;179;917116;-60
2023/07/18 11:16:22;;;;;;;5.63;2.67;;;;;;;;;;771887;179;938026;-59
2023/07/18 11:18:49;;;;;;;5.13;3.60;;;;;;;;;;777765;179;894800;-65
2023/07/18 11:21:15;;;;;;;5.13;3.13;;;;;;;;;;771567;180;929113;-66
2023/07/18 11:23:40;;;;;;;8.60;3.77;;;;;;;;;;771147;180;917801;-65
2023/07/18 11:26:08;;;;;;;6.20;3.80;;;;;;;;;;775968;179;919299;-59
2023/07/18 11:28:35;;;;;;;4.60;3.20;;;;;;;;;;781204;180;908200;-59
2023/07/18 11:31:00;;;;;;;5.73;3.40;;;;;;;;;;770899;179;895806;-59
2023/07/18 11:33:28;;;;;;;4.07;3.00;;;;;;;;;;773708;179;914258;-61
2023/07/18 11:35:56;;;;;;;5.37;3.27;;;;;;;;;;776557;180;917896;-65
2023/07/18 11:38:24;;;;;;;5.30;3.13;;;;;;;;;;770599;179;891993;-59
2023/07/18 11:40:46;;;;;;;5.70;3.73;;;;;;;;;;778126;179;817504;-59
2023/07/18 11:43:17;;;;;;;6.30;3.20;;;;;;;;;;777287;179;619544;-64
2023/07/18 11:45:43;;;;;;;6.53;3.03;;;;;;;;;;772382;180;917066;-64
2023/07/18 11:48:08;;;;;;;6.07;3.33;;;;;;;;;;778757;179;920363;-60
2023/07/18 11:50:34;;;;;;;4.40;2.73;;;;;;;;;;777496;179;899236;-65
2023/07/18 11:53:00;;;;;;;7.90;3.60;;;;;;;;;;777223;180;918234;-60
2023/07/18 11:55:26;;;;;;;7.75;3.45;;;;;;;;;;775144;180;678500;-67
2023/07/18 11:57:52;;;;;;;6.73;3.20;;;;;;;;;;776333;180;624952;-61
2023/07/18 12:00:19;;;;;;;4.10;2.97;;;;;;;;;;781956;179;622227;-65
2023/07/18 12:02:44;;;;;;;4.87;3.60;;;;;;;;;;776195;179;629896;-59
2023/07/18 12:05:11;;;;;;;4.73;3.50;;;;;;;;;;778236;179;626147;-60
2023/07/18 12:07:36;;;;;;;4.97;3.57;;;;;;;;;;773898;180;630413;-59
2023/07/18 12:10:02;;;;;;;5.50;3.20;;;;;;;;;;776424;180;1068654;-60
2023/07/18 12:12:28;;;;;;;9.57;3.20;;;;;;;;;;777116;180;818544;-66
2023/07/18 12:14:54;;;;;;;5.50;3.50;;;;;;;;;;772850;179;919713;-64
2023/07/18 12:17:20;;;;;;;6.33;2.80;;;;;;;;;;778662;179;830681;-66
2023/07/18 12:19:45;;;;;;;5.97;3.60;;;;;;;;;;776950;179;920525;-64
2023/07/18 12:22:11;;;;;;;4.40;3.10;;;;;;;;;;776753;180;866017;-65
2023/07/18 12:24:37;;;;;;;5.20;3.00;;;;;;;;;;775320;181;918833;-60
2023/07/18 12:27:04;;;;;;;5.27;3.40;;;;;;;;;;774673;180;916771;-65
2023/07/18 12:29:30;;;;;;;5.30;3.00;;;;;;;;;;769604;180;916478;-60
2023/07/18 12:31:56;;;;;;;5.63;4.00;;;;;;;;;;770412;179;1024176;-65
2023/07/18 12:34:22;;;;;;;6.20;3.40;;;;;;;;;;775197;180;919940;-60
2023/07/18 12:36:47;;;;;;;6.97;3.90;;;;;;;;;;775774;180;916562;-65
2023/07/18 12:39:14;;;;;;;5.47;3.20;;;;;;;;;;769863;179;916000;-60
2023/07/18 12:41:39;;;;;;;6.30;3.53;;;;;;;;;;775746;180;923330;-60
2023/07/18 12:44:05;;;;;;;4.50;3.00;;;;;;;;;;777681;180;818480;-60
2023/07/18 12:46:31;;;;;;;7.77;3.20;;;;;;;;;;776121;180;817358;-65
2023/07/18 12:48:57;;;;;;;7.10;3.07;;;;;;;;;;773003;181;816718;-61
2023/07/18 12:51:23;;;;;;;4.90;3.20;;;;;;;;;;772450;181;920298;-66
2023/07/18 12:53:48;;;;;;;4.93;3.10;;;;;;;;;;763561;180;919665;-60
2023/07/18 12:56:16;;;;;;;9.20;3.20;;;;;;;;;;773425;179;918604;-60
2023/07/18 12:58:42;;;;;;;7.33;2.97;;;;;;;;;;771010;181;918485;-68
2023/07/18 13:01:08;;;;;;;4.67;3.10;;;;;;;;;;770671;181;919042;-60
2023/07/18 13:03:34;;;;;;;4.50;3.30;;;;;;;;;;766949;181;920283;-61
2023/07/18 13:05:59;;;;;;;7.33;3.60;;;;;;;;;;776255;179;908685;-67
2023/07/18 13:08:25;;;;;;;5.53;3.33;;;;;;;;;;777470;179;919627;-68
2023/07/18 13:10:51;;;;;;;7.83;3.40;;;;;;;;;;771119;180;918661;-60
2023/07/18 13:13:17;;;;;;;6.93;3.83;;;;;;;;;;772659;180;916588;-61
2023/07/18 13:15:44;;;;;;;6.17;3.23;;;;;;;;;;765485;180;915819;-67
2023/07/18 13:18:09;;;;;;;8.00;4.20;;;;;;;;;;775821;180;920937;-68
2023/07/18 13:20:35;;;;;;;5.03;3.10;;;;;;;;;;773271;179;820188;-60
2023/07/18 13:23:00;;;;;;;8.17;3.90;;;;;;;;;;768877;181;916754;-60
2023/07/18 13:25:26;;;;;;;13.83;3.87;;;;;;;;;;776958;178;817202;-59
2023/07/18 13:27:52;;;;;;;7.53;3.20;;;;;;;;;;775398;180;919661;-59
2023/07/18 13:30:18;;;;;;;5.30;2.80;;;;;;;;;;778263;179;819804;-65
2023/07/18 13:32:44;;;;;;;4.73;2.87;;;;;;;;;;771994;179;921686;-65
2023/07/18 13:35:10;;;;;;;4.27;3.03;;;;;;;;;;773435;180;917803;-59
2023/07/18 13:37:35;;;;;;;4.57;2.90;;;;;;;;;;771247;180;920270;-65
2023/07/18 13:40:01;;;;;;;5.47;3.40;;;;;;;;;;767668;180;919383;-66
2023/07/18 13:42:27;;;;;;;5.10;3.20;;;;;;;;;;774835;180;919401;-59
2023/07/18 13:44:54;;;;;;;4.57;3.00;;;;;;;;;;776950;179;918290;-64
2023/07/18 13:47:19;;;;;;;7.73;3.73;;;;;;;;;;765943;180;919035;-65
2023/07/18 13:49:45;;;;;;;4.97;3.10;;;;;;;;;;770211;179;920349;-65
2023/07/18 13:52:10;;;;;;;8.77;3.17;;;;;;;;;;768958;180;845862;-65
2023/07/18 13:54:36;;;;;;;6.17;3.73;;;;;;;;;;776435;180;853743;-59
2023/07/18 13:57:03;;;;;;;5.10;3.63;;;;;;;;;;778529;180;819147;-59
2023/07/18 13:59:28;;;;;;;6.07;3.60;;;;;;;;;;775887;180;922376;-59
2023/07/18 14:01:54;;;;;;;4.50;3.10;;;;;;;;;;773652;181;918971;-64
2023/07/18 14:04:20;;;;;;;7.87;3.37;;;;;;;;;;774756;179;935363;-58
2023/07/18 14:06:46;;;;;;;5.17;2.87;;;;;;;;;;775495;179;822145;-63
2023/07/18 14:09:11;;;;;;;4.90;2.97;;;;;;;;;;778931;180;929979;-63
2023/07/18 14:11:37;;;;;;;4.67;3.20;;;;;;;;;;772842;180;768838;-59